createdAt,value
2018-01-11T00:00:22.622Z,0
2018-01-11T00:01:32.335Z,0
2018-01-11T00:02:42.291Z,0
2018-01-11T00:03:51.985Z,0
2018-01-11T00:05:01.942Z,0
2018-01-11T00:06:11.890Z,0
2018-01-11T00:07:21.943Z,0
2018-01-11T00:08:31.904Z,0
2018-01-11T00:09:41.847Z,0
2018-01-11T00:10:51.787Z,0
2018-01-11T00:12:01.737Z,0
2018-01-11T00:13:11.690Z,0
2018-01-11T00:14:21.630Z,0
2018-01-11T00:15:31.576Z,0
2018-01-11T00:16:41.526Z,0
2018-01-11T00:17:51.480Z,0
2018-01-11T00:19:01.423Z,0
2018-01-11T00:20:11.435Z,0
2018-01-11T00:21:21.130Z,0
2018-01-11T00:22:31.079Z,0
2018-01-11T00:23:41.048Z,0
2018-01-11T00:24:51.054Z,0
2018-01-11T00:26:01.002Z,0
2018-01-11T00:27:10.960Z,0
2018-01-11T00:28:20.917Z,0
2018-01-11T00:29:30.889Z,0
2018-01-11T00:30:40.844Z,0
2018-01-11T00:31:50.541Z,0
2018-01-11T00:33:00.489Z,0
2018-01-11T00:34:10.440Z,0
2018-01-11T00:35:20.130Z,0
2018-01-11T00:36:30.133Z,0
2018-01-11T00:37:40.076Z,0
2018-01-11T00:38:50.036Z,0
2018-01-11T00:39:59.488Z,0
2018-01-11T00:41:08.934Z,0
2018-01-11T00:42:18.889Z,0
2018-01-11T00:43:28.584Z,0
2018-01-11T00:44:38.539Z,0
2018-01-11T00:45:48.481Z,0
2018-01-11T00:46:58.432Z,0
2018-01-11T00:48:08.130Z,0
2018-01-11T00:49:18.097Z,0
2018-01-11T00:50:27.778Z,0
2018-01-11T00:51:37.716Z,0
2018-01-11T00:52:47.710Z,0
2018-01-11T00:53:57.154Z,0
2018-01-11T00:55:06.600Z,0
2018-01-11T00:56:16.535Z,0
2018-01-11T00:57:26.234Z,0
2018-01-11T00:58:35.919Z,0
2018-01-11T00:59:45.873Z,0
2018-01-11T01:00:55.817Z,0
2018-01-11T01:02:05.526Z,0
2018-01-11T01:03:15.208Z,0
2018-01-11T01:04:24.640Z,0
2018-01-11T01:05:34.583Z,0
2018-01-11T01:06:44.526Z,0
2018-01-11T01:07:54.482Z,0
2018-01-11T01:09:04.459Z,0
2018-01-11T01:10:14.411Z,0
2018-01-11T01:11:24.353Z,0
2018-01-11T01:12:34.285Z,0
2018-01-11T01:13:43.968Z,0
2018-01-11T01:14:53.657Z,0
2018-01-11T01:16:03.615Z,0
2018-01-11T01:17:13.560Z,0
2018-01-11T01:18:23.249Z,0
2018-01-11T01:19:33.217Z,0
2018-01-11T01:20:43.158Z,0
2018-01-11T01:21:52.845Z,0
2018-01-11T01:23:02.532Z,0
2018-01-11T01:24:12.479Z,0
2018-01-11T01:25:22.169Z,0
2018-01-11T01:26:32.122Z,0
2018-01-11T01:27:41.807Z,0
2018-01-11T01:28:51.550Z,0
2018-01-11T01:30:01.238Z,0
2018-01-11T01:31:11.185Z,0
2018-01-11T01:32:21.144Z,0
2018-01-11T01:33:30.582Z,0
2018-01-11T01:34:40.279Z,0
2018-01-11T01:35:50.232Z,0
2018-01-11T01:37:00.171Z,0
2018-01-11T01:38:09.917Z,0
2018-01-11T01:39:19.862Z,0
2018-01-11T01:40:29.803Z,0
2018-01-11T01:41:39.755Z,0
2018-01-11T01:42:49.691Z,0
2018-01-11T01:43:59.656Z,0
2018-01-11T01:45:09.369Z,0
2018-01-11T01:46:19.332Z,0
2018-01-11T01:47:29.019Z,0
2018-01-11T01:48:38.448Z,0
2018-01-11T01:49:48.138Z,0
2018-01-11T01:50:57.826Z,0
2018-01-11T01:52:07.776Z,0
2018-01-11T01:53:17.722Z,0
2018-01-11T01:54:27.670Z,0
2018-01-11T01:55:37.621Z,0
2018-01-11T01:56:47.323Z,0
2018-01-11T01:57:57.267Z,0
2018-01-11T01:59:07.211Z,0
2018-01-11T02:00:17.182Z,0
2018-01-11T02:01:26.871Z,0
2018-01-11T02:02:36.821Z,0
2018-01-11T02:03:46.790Z,0
2018-01-11T02:04:56.481Z,0
2018-01-11T02:06:06.483Z,0
2018-01-11T02:07:16.176Z,0
2018-01-11T02:08:25.864Z,0
2018-01-11T02:09:35.819Z,0
2018-01-11T02:10:45.506Z,0
2018-01-11T02:11:55.456Z,0
2018-01-11T02:13:05.141Z,0
2018-01-11T02:14:15.102Z,0
2018-01-11T02:15:25.069Z,0
2018-01-11T02:16:34.752Z,0
2018-01-11T02:17:44.697Z,0
2018-01-11T02:18:54.404Z,0
2018-01-11T02:20:04.601Z,0
2018-01-11T02:21:14.566Z,0
2018-01-11T02:22:24.514Z,0
2018-01-11T02:23:34.457Z,0
2018-01-11T02:24:44.402Z,0
2018-01-11T02:25:54.346Z,0
2018-01-11T02:27:04.304Z,0
2018-01-11T02:28:14.254Z,0
2018-01-11T02:29:24.198Z,0
2018-01-11T02:30:34.207Z,0
2018-01-11T02:31:44.155Z,0
2018-01-11T02:32:54.101Z,0
2018-01-11T02:34:04.047Z,0
2018-01-11T02:35:13.998Z,0
2018-01-11T02:36:24.010Z,0
2018-01-11T02:37:33.978Z,0
2018-01-11T02:38:43.940Z,0
2018-01-11T02:39:53.891Z,0
2018-01-11T02:41:03.584Z,0
2018-01-11T02:42:13.539Z,0
2018-01-11T02:43:23.239Z,0
2018-01-11T02:44:33.206Z,0
2018-01-11T02:45:42.924Z,0
2018-01-11T02:46:53.134Z,0
2018-01-11T02:48:03.379Z,0
2018-01-11T02:49:13.331Z,0
2018-01-11T02:50:23.074Z,0
2018-01-11T02:51:33.016Z,0
2018-01-11T02:52:42.949Z,0
2018-01-11T02:53:52.907Z,0
2018-01-11T02:55:02.846Z,0
2018-01-11T02:56:12.804Z,0
2018-01-11T02:57:22.767Z,0
2018-01-11T02:58:32.727Z,0
2018-01-11T02:59:42.679Z,0
2018-01-11T03:00:52.394Z,0
2018-01-11T03:02:02.102Z,0
2018-01-11T03:03:11.783Z,0
2018-01-11T03:04:21.718Z,0
2018-01-11T03:05:31.661Z,0
2018-01-11T03:06:41.348Z,0
2018-01-11T03:07:51.288Z,0
2018-01-11T03:09:01.237Z,0
2018-01-11T03:10:11.185Z,0
2018-01-11T03:11:20.895Z,0
2018-01-11T03:12:30.335Z,0
2018-01-11T03:13:40.541Z,0
2018-01-11T03:14:50.224Z,0
2018-01-11T03:15:59.910Z,0
2018-01-11T03:17:09.859Z,0
2018-01-11T03:18:19.549Z,0
2018-01-11T03:19:29.486Z,0
2018-01-11T03:20:39.431Z,0
2018-01-11T03:21:49.113Z,0
2018-01-11T03:22:59.055Z,0
2018-01-11T03:24:08.488Z,0
2018-01-11T03:25:18.173Z,0
2018-01-11T03:26:27.968Z,0
2018-01-11T03:27:37.921Z,0
2018-01-11T03:28:47.869Z,0
2018-01-11T03:29:57.309Z,0
2018-01-11T03:31:07.006Z,0
2018-01-11T03:32:16.696Z,0
2018-01-11T03:33:26.644Z,0
2018-01-11T03:34:36.335Z,0
2018-01-11T03:35:46.021Z,0
2018-01-11T03:36:55.969Z,0
2018-01-11T03:38:05.920Z,0
2018-01-11T03:39:15.863Z,0
2018-01-11T03:40:25.557Z,0
2018-01-11T03:41:35.507Z,0
2018-01-11T03:42:45.206Z,0
2018-01-11T03:43:54.891Z,0
2018-01-11T03:45:04.591Z,0
2018-01-11T03:46:14.030Z,0
2018-01-11T03:47:24.032Z,0
2018-01-11T03:48:33.709Z,0
2018-01-11T03:49:43.654Z,0
2018-01-11T03:50:53.601Z,0
2018-01-11T03:52:03.553Z,0
2018-01-11T03:53:12.987Z,0
2018-01-11T03:54:22.682Z,0
2018-01-11T03:55:32.381Z,0
2018-01-11T03:56:42.316Z,0
2018-01-11T03:57:51.756Z,0
2018-01-11T03:59:01.704Z,0
2018-01-11T04:00:11.398Z,0
2018-01-11T04:01:20.888Z,0
2018-01-11T04:02:30.828Z,0
2018-01-11T04:03:40.772Z,0
2018-01-11T04:04:50.706Z,0
2018-01-11T04:06:00.148Z,0
2018-01-11T04:07:10.093Z,0
2018-01-11T04:08:20.033Z,0
2018-01-11T04:09:29.726Z,0
2018-01-11T04:10:39.675Z,0
2018-01-11T04:11:49.620Z,0
2018-01-11T04:12:59.580Z,0
2018-01-11T04:14:09.277Z,0
2018-01-11T04:15:18.457Z,0
2018-01-11T04:16:28.419Z,0
2018-01-11T04:17:38.383Z,0
2018-01-11T04:18:48.386Z,0
2018-01-11T04:19:58.072Z,0
2018-01-11T04:21:08.026Z,0
2018-01-11T04:22:17.969Z,0
2018-01-11T04:23:27.662Z,0
2018-01-11T04:24:37.607Z,0
2018-01-11T04:25:47.560Z,0
2018-01-11T04:26:57.295Z,0
2018-01-11T04:28:07.246Z,0
2018-01-11T04:29:17.196Z,0
2018-01-11T04:30:27.151Z,0
2018-01-11T04:31:36.846Z,0
2018-01-11T04:32:46.782Z,0
2018-01-11T04:33:56.733Z,0
2018-01-11T04:35:06.700Z,0
2018-01-11T04:36:16.403Z,0
2018-01-11T04:37:26.360Z,0
2018-01-11T04:38:36.352Z,0
2018-01-11T04:39:46.298Z,0
2018-01-11T04:40:56.241Z,0
2018-01-11T04:42:06.189Z,0
2018-01-11T04:43:16.139Z,0
2018-01-11T04:44:25.569Z,0
2018-01-11T04:45:35.517Z,0
2018-01-11T04:46:45.458Z,0
2018-01-11T04:47:55.661Z,0
2018-01-11T04:49:05.363Z,0
2018-01-11T04:50:15.304Z,0
2018-01-11T04:51:25.252Z,0
2018-01-11T04:52:35.255Z,0
2018-01-11T04:53:44.982Z,0
2018-01-11T04:54:54.943Z,0
2018-01-11T04:56:04.892Z,0
2018-01-11T04:57:14.871Z,0
2018-01-11T04:58:24.810Z,0
2018-01-11T04:59:34.778Z,0
2018-01-11T05:00:44.719Z,0
2018-01-11T05:01:54.410Z,0
2018-01-11T05:03:04.354Z,0
2018-01-11T05:04:13.278Z,0
2018-01-11T05:05:23.219Z,0
2018-01-11T05:06:32.902Z,0
2018-01-11T05:07:42.854Z,0
2018-01-11T05:08:52.797Z,0
2018-01-11T05:10:02.741Z,0
2018-01-11T05:11:12.707Z,0
2018-01-11T05:12:22.481Z,0
2018-01-11T05:13:32.170Z,0
2018-01-11T05:14:42.114Z,0
2018-01-11T05:15:51.805Z,0
2018-01-11T05:17:01.240Z,0
2018-01-11T05:18:10.957Z,0
2018-01-11T05:19:20.906Z,0
2018-01-11T05:20:30.602Z,0
2018-01-11T05:21:40.288Z,0
2018-01-11T05:22:49.988Z,0
2018-01-11T05:23:59.934Z,0
2018-01-11T05:25:09.378Z,0
2018-01-11T05:26:19.068Z,0
2018-01-11T05:27:28.750Z,0
2018-01-11T05:28:38.705Z,0
2018-01-11T05:29:48.646Z,0
2018-01-11T05:30:58.333Z,0
2018-01-11T05:32:08.045Z,0
2018-01-11T05:33:17.986Z,0
2018-01-11T05:34:27.432Z,0
2018-01-11T05:35:37.371Z,0
2018-01-11T05:36:47.086Z,0
2018-01-11T05:37:56.784Z,0
2018-01-11T05:39:06.733Z,0
2018-01-11T05:40:16.674Z,0
2018-01-11T05:41:26.368Z,0
2018-01-11T05:42:36.307Z,0
2018-01-11T05:43:46.246Z,0
2018-01-11T05:44:56.195Z,0
2018-01-11T05:46:05.884Z,0
2018-01-11T05:47:15.580Z,0
2018-01-11T05:48:25.263Z,0
2018-01-11T05:49:34.709Z,0
2018-01-11T05:50:44.689Z,0
2018-01-11T05:51:54.387Z,0
2018-01-11T05:53:04.340Z,0
2018-01-11T05:54:14.286Z,0
2018-01-11T05:55:24.236Z,0
2018-01-11T05:56:33.921Z,0
2018-01-11T05:57:43.866Z,0
2018-01-11T05:58:53.545Z,0
2018-01-11T06:00:03.246Z,0
2018-01-11T06:01:13.206Z,0
2018-01-11T06:02:22.896Z,0
2018-01-11T06:03:32.844Z,0
2018-01-11T06:04:42.786Z,0
2018-01-11T06:05:52.529Z,0
2018-01-11T06:07:02.226Z,0
2018-01-11T06:08:11.915Z,0
2018-01-11T06:09:21.951Z,0
2018-01-11T06:10:31.649Z,0
2018-01-11T06:11:41.344Z,0
2018-01-11T06:12:51.292Z,0
2018-01-11T06:14:01.232Z,0
2018-01-11T06:15:10.921Z,0
2018-01-11T06:16:20.861Z,0
2018-01-11T06:17:30.554Z,0
2018-01-11T06:18:40.247Z,0
2018-01-11T06:19:49.952Z,0
2018-01-11T06:20:59.902Z,0
2018-01-11T06:22:09.876Z,0
2018-01-11T06:23:19.564Z,0
2018-01-11T06:24:29.246Z,0
2018-01-11T06:25:38.939Z,0
2018-01-11T06:26:48.884Z,0
2018-01-11T06:27:58.576Z,0
2018-01-11T06:29:08.528Z,0
2018-01-11T06:30:18.468Z,0
2018-01-11T06:31:28.171Z,0
2018-01-11T06:32:38.122Z,0
2018-01-11T06:33:48.079Z,0
2018-01-11T06:34:58.033Z,0
2018-01-11T06:36:07.984Z,0
2018-01-11T06:37:17.926Z,4
2018-01-11T06:38:27.612Z,4
2018-01-11T06:39:37.295Z,0
2018-01-11T06:40:47.285Z,4
2018-01-11T06:41:57.232Z,4
2018-01-11T06:43:06.949Z,8
2018-01-11T06:44:16.885Z,4
2018-01-11T06:45:26.823Z,4
2018-01-11T06:46:36.512Z,12
2018-01-11T06:47:46.204Z,12
2018-01-11T06:48:56.132Z,12
2018-01-11T06:50:06.109Z,16
2018-01-11T06:51:16.052Z,16
2018-01-11T06:52:25.772Z,16
2018-01-11T06:53:35.464Z,24
2018-01-11T06:54:45.685Z,24
2018-01-11T06:55:55.630Z,28
2018-01-11T06:57:05.587Z,32
2018-01-11T06:58:15.297Z,40
2018-01-11T06:59:25.244Z,44
2018-01-11T07:00:35.199Z,48
2018-01-11T07:01:44.901Z,56
2018-01-11T07:02:54.337Z,64
2018-01-11T07:04:04.033Z,68
2018-01-11T07:05:13.735Z,80
2018-01-11T07:06:23.689Z,88
2018-01-11T07:07:33.639Z,96
2018-01-11T07:08:43.601Z,104
2018-01-11T07:09:53.547Z,112
2018-01-11T07:11:03.269Z,120
2018-01-11T07:12:13.225Z,128
2018-01-11T07:13:23.186Z,140
2018-01-11T07:14:32.876Z,148
2018-01-11T07:15:42.838Z,156
2018-01-11T07:16:52.322Z,164
2018-01-11T07:18:02.527Z,176
2018-01-11T07:19:12.479Z,192
2018-01-11T07:20:22.493Z,204
2018-01-11T07:21:32.445Z,216
2018-01-11T07:22:42.395Z,224
2018-01-11T07:23:52.354Z,236
2018-01-11T07:25:02.054Z,236
2018-01-11T07:26:11.755Z,244
2018-01-11T07:27:21.198Z,248
2018-01-11T07:28:30.912Z,256
2018-01-11T07:29:40.351Z,276
2018-01-11T07:30:50.060Z,288
2018-01-11T07:32:00.026Z,296
2018-01-11T07:33:10.003Z,308
2018-01-11T07:34:20.049Z,320
2018-01-11T07:35:29.478Z,336
2018-01-11T07:36:39.489Z,356
2018-01-11T07:37:49.445Z,380
2018-01-11T07:38:59.142Z,408
2018-01-11T07:40:09.096Z,432
2018-01-11T07:41:19.065Z,468
2018-01-11T07:42:28.756Z,504
2018-01-11T07:43:38.713Z,532
2018-01-11T07:44:48.415Z,560
2018-01-11T07:45:58.377Z,588
2018-01-11T07:47:08.353Z,612
2018-01-11T07:48:18.041Z,640
2018-01-11T07:49:28.018Z,652
2018-01-11T07:50:37.989Z,668
2018-01-11T07:51:47.823Z,688
2018-01-11T07:52:57.785Z,712
2018-01-11T07:54:07.217Z,736
2018-01-11T07:55:17.193Z,764
2018-01-11T07:56:27.144Z,784
2018-01-11T07:57:36.850Z,804
2018-01-11T07:58:46.544Z,828
2018-01-11T07:59:56.496Z,840
2018-01-11T08:01:06.440Z,868
2018-01-11T08:02:16.401Z,904
2018-01-11T08:03:26.357Z,944
2018-01-11T08:04:36.065Z,984
2018-01-11T08:05:46.032Z,1024
2018-01-11T08:06:55.991Z,1056
2018-01-11T08:08:05.682Z,1080
2018-01-11T08:09:15.630Z,1100
2018-01-11T08:10:25.605Z,1100
2018-01-11T08:11:35.561Z,1092
2018-01-11T08:12:45.304Z,1120
2018-01-11T08:13:55.006Z,1156
2018-01-11T08:15:04.976Z,1212
2018-01-11T08:16:14.928Z,1248
2018-01-11T08:17:24.880Z,1256
2018-01-11T08:18:34.830Z,1256
2018-01-11T08:19:44.806Z,1292
2018-01-11T08:20:54.798Z,1300
2018-01-11T08:22:04.794Z,1324
2018-01-11T08:23:14.766Z,1360
2018-01-11T08:24:24.506Z,1388
2018-01-11T08:25:34.190Z,1436
2018-01-11T08:26:43.876Z,1516
2018-01-11T08:27:53.875Z,1592
2018-01-11T08:29:03.573Z,1652
2018-01-11T08:30:13.546Z,1732
2018-01-11T08:31:23.488Z,1804
2018-01-11T08:32:33.457Z,1816
2018-01-11T08:33:43.448Z,1820
2018-01-11T08:34:53.146Z,1800
2018-01-11T08:36:03.291Z,1804
2018-01-11T08:37:13.245Z,1816
2018-01-11T08:38:23.198Z,1888
2018-01-11T08:39:32.890Z,1896
2018-01-11T08:40:42.605Z,1900
2018-01-11T08:41:52.854Z,1952
2018-01-11T08:43:02.813Z,2032
2018-01-11T08:44:12.741Z,2040
2018-01-11T08:45:22.701Z,2000
2018-01-11T08:46:32.393Z,2012
2018-01-11T08:47:42.091Z,2056
2018-01-11T08:48:51.828Z,2052
2018-01-11T08:50:01.786Z,2020
2018-01-11T08:51:11.769Z,2032
2018-01-11T08:52:21.751Z,2076
2018-01-11T08:53:31.710Z,2160
2018-01-11T08:54:41.683Z,2136
2018-01-11T08:55:51.683Z,2100
2018-01-11T08:57:01.700Z,2112
2018-01-11T08:58:11.688Z,2156
2018-01-11T08:59:21.700Z,2172
2018-01-11T09:00:31.427Z,2108
2018-01-11T09:01:41.414Z,2060
2018-01-11T09:02:51.378Z,2060
2018-01-11T09:04:01.332Z,2068
2018-01-11T09:05:11.051Z,2008
2018-01-11T09:06:21.024Z,1852
2018-01-11T09:07:30.747Z,1712
2018-01-11T09:08:40.741Z,1636
2018-01-11T09:09:50.721Z,1580
2018-01-11T09:11:00.693Z,1484
2018-01-11T09:12:10.673Z,1424
2018-01-11T09:13:20.628Z,1388
2018-01-11T09:14:30.596Z,1388
2018-01-11T09:15:40.304Z,1332
2018-01-11T09:16:50.280Z,1272
2018-01-11T09:18:00.234Z,1220
2018-01-11T09:19:09.942Z,1208
2018-01-11T09:20:19.928Z,1288
2018-01-11T09:21:29.896Z,1368
2018-01-11T09:22:39.610Z,1392
2018-01-11T09:23:49.594Z,1416
2018-01-11T09:24:59.564Z,1444
2018-01-11T09:26:09.289Z,1520
2018-01-11T09:27:19.007Z,1580
2018-01-11T09:28:28.454Z,1692
2018-01-11T09:29:38.160Z,1796
2018-01-11T09:30:47.864Z,1812
2018-01-11T09:31:57.873Z,1784
2018-01-11T09:33:08.016Z,1828
2018-01-11T09:34:18.408Z,1888
2018-01-11T09:35:27.988Z,1872
2018-01-11T09:36:37.704Z,1944
2018-01-11T09:37:47.655Z,2056
2018-01-11T09:38:57.348Z,2172
2018-01-11T09:40:07.322Z,2336
2018-01-11T09:41:17.036Z,2328
2018-01-11T09:42:26.740Z,2280
2018-01-11T09:43:36.440Z,2264
2018-01-11T09:44:46.455Z,2252
2018-01-11T09:45:56.406Z,2296
2018-01-11T09:47:05.866Z,2316
2018-01-11T09:48:15.327Z,2332
2018-01-11T09:49:25.055Z,2368
2018-01-11T09:50:34.770Z,2436
2018-01-11T09:51:44.724Z,2516
2018-01-11T09:52:54.685Z,2584
2018-01-11T09:54:04.380Z,2604
2018-01-11T09:55:14.333Z,2724
2018-01-11T09:56:24.286Z,2880
2018-01-11T09:57:34.005Z,3048
2018-01-11T09:58:43.710Z,3152
2018-01-11T09:59:53.702Z,3248
2018-01-11T10:01:03.483Z,3260
2018-01-11T10:02:13.454Z,3180
2018-01-11T10:03:23.192Z,3204
2018-01-11T10:04:33.191Z,3296
2018-01-11T10:05:43.141Z,3296
2018-01-11T10:06:53.140Z,3232
2018-01-11T10:08:03.164Z,3196
2018-01-11T10:09:13.117Z,3124
2018-01-11T10:10:22.864Z,3120
2018-01-11T10:11:32.592Z,3132
2018-01-11T10:12:42.558Z,3176
2018-01-11T10:13:52.505Z,3156
2018-01-11T10:15:02.488Z,3056
2018-01-11T10:16:12.462Z,3036
2018-01-11T10:17:21.901Z,3028
2018-01-11T10:18:31.932Z,3040
2018-01-11T10:19:41.893Z,2976
2018-01-11T10:20:51.583Z,2920
2018-01-11T10:22:01.317Z,2848
2018-01-11T10:23:11.103Z,2780
2018-01-11T10:24:20.545Z,2708
2018-01-11T10:25:30.550Z,2608
2018-01-11T10:26:40.525Z,2516
2018-01-11T10:27:50.476Z,2376
2018-01-11T10:29:00.448Z,2288
2018-01-11T10:30:10.154Z,2276
2018-01-11T10:31:20.098Z,2288
2018-01-11T10:32:30.045Z,2292
2018-01-11T10:33:39.734Z,2264
2018-01-11T10:34:49.684Z,2236
2018-01-11T10:35:59.698Z,2228
2018-01-11T10:37:09.665Z,2240
2018-01-11T10:38:19.617Z,2208
2018-01-11T10:39:29.310Z,2152
2018-01-11T10:40:39.272Z,2192
2018-01-11T10:41:49.258Z,2220
2018-01-11T10:42:58.953Z,2256
2018-01-11T10:44:08.932Z,2324
2018-01-11T10:45:18.906Z,2448
2018-01-11T10:46:28.862Z,2544
2018-01-11T10:47:38.808Z,2584
2018-01-11T10:48:48.518Z,2564
2018-01-11T10:49:58.222Z,2548
2018-01-11T10:51:08.206Z,2616
2018-01-11T10:52:18.183Z,2640
2018-01-11T10:53:28.147Z,2648
2018-01-11T10:54:38.122Z,2652
2018-01-11T10:55:48.073Z,2708
2018-01-11T10:56:57.778Z,2828
2018-01-11T10:58:07.487Z,2932
2018-01-11T10:59:17.475Z,2912
2018-01-11T11:00:27.423Z,2868
2018-01-11T11:01:37.397Z,2676
2018-01-11T11:02:47.356Z,2584
2018-01-11T11:03:57.349Z,2488
2018-01-11T11:05:07.057Z,2540
2018-01-11T11:06:17.006Z,2720
2018-01-11T11:07:27.010Z,2980
2018-01-11T11:08:36.739Z,3164
2018-01-11T11:09:46.725Z,3400
2018-01-11T11:10:56.489Z,3500
2018-01-11T11:12:06.188Z,3628
2018-01-11T11:13:16.170Z,3712
2018-01-11T11:14:25.910Z,3736
2018-01-11T11:15:35.879Z,3740
2018-01-11T11:16:45.581Z,3884
2018-01-11T11:17:55.539Z,3936
2018-01-11T11:19:05.486Z,4072
2018-01-11T11:20:15.432Z,4380
2018-01-11T11:21:25.201Z,4596
2018-01-11T11:22:35.898Z,4748
2018-01-11T11:23:45.619Z,4816
2018-01-11T11:24:55.568Z,4848
2018-01-11T11:26:05.527Z,4872
2018-01-11T11:27:15.482Z,4808
2018-01-11T11:28:25.166Z,4828
2018-01-11T11:29:34.882Z,4844
2018-01-11T11:30:44.403Z,4956
2018-01-11T11:31:54.362Z,4928
2018-01-11T11:33:04.326Z,4516
2018-01-11T11:34:14.276Z,4420
2018-01-11T11:35:24.226Z,4412
2018-01-11T11:36:33.939Z,4372
2018-01-11T11:37:43.891Z,4496
2018-01-11T11:38:53.859Z,4924
2018-01-11T11:40:03.809Z,5420
2018-01-11T11:41:13.778Z,5920
2018-01-11T11:42:23.253Z,6432
2018-01-11T11:43:33.203Z,6448
2018-01-11T11:44:42.917Z,6692
2018-01-11T11:45:52.922Z,7344
2018-01-11T11:47:02.885Z,7856
2018-01-11T11:48:12.837Z,8036
2018-01-11T11:49:22.533Z,8044
2018-01-11T11:50:32.491Z,8020
2018-01-11T11:51:42.178Z,7972
2018-01-11T11:52:52.166Z,7896
2018-01-11T11:54:02.140Z,7992
2018-01-11T11:55:12.117Z,8260
2018-01-11T11:56:22.066Z,8684
2018-01-11T11:57:31.779Z,8780
2018-01-11T11:58:41.811Z,8792
2018-01-11T11:59:51.789Z,9044
2018-01-11T12:01:01.809Z,9200
2018-01-11T12:02:11.824Z,8816
2018-01-11T12:03:21.796Z,8536
2018-01-11T12:04:31.766Z,8160
2018-01-11T12:05:41.738Z,8148
2018-01-11T12:06:51.704Z,8512
2018-01-11T12:08:01.678Z,9076
2018-01-11T12:09:11.634Z,9344
2018-01-11T12:10:21.886Z,9348
2018-01-11T12:11:32.274Z,9400
2018-01-11T12:12:42.341Z,9228
2018-01-11T12:13:52.122Z,8760
2018-01-11T12:15:01.853Z,8172
2018-01-11T12:16:11.586Z,7508
2018-01-11T12:17:21.566Z,7080
2018-01-11T12:18:31.582Z,7036
2018-01-11T12:19:41.049Z,7248
2018-01-11T12:20:51.034Z,7508
2018-01-11T12:22:00.764Z,7940
2018-01-11T12:23:10.001Z,8340
2018-01-11T12:24:20.189Z,8600
2018-01-11T12:25:29.882Z,8604
2018-01-11T12:26:39.855Z,8504
2018-01-11T12:27:49.892Z,8340
2018-01-11T12:28:59.592Z,8240
2018-01-11T12:30:09.091Z,8144
2018-01-11T12:31:19.058Z,7984
2018-01-11T12:32:29.018Z,7908
2018-01-11T12:33:38.728Z,7800
2018-01-11T12:34:48.705Z,7596
2018-01-11T12:35:58.406Z,7492
2018-01-11T12:37:08.328Z,7380
2018-01-11T12:38:18.277Z,7200
2018-01-11T12:39:27.987Z,7300
2018-01-11T12:40:37.714Z,7216
2018-01-11T12:41:47.673Z,6888
2018-01-11T12:42:57.633Z,6692
2018-01-11T12:44:07.592Z,6736
2018-01-11T12:45:17.549Z,6616
2018-01-11T12:46:27.517Z,6460
2018-01-11T12:47:37.218Z,6304
2018-01-11T12:48:47.170Z,6368
2018-01-11T12:49:56.914Z,6488
2018-01-11T12:51:06.665Z,6172
2018-01-11T12:52:16.624Z,5644
2018-01-11T12:53:26.341Z,5120
2018-01-11T12:54:36.053Z,4584
2018-01-11T12:55:45.748Z,4152
2018-01-11T12:56:55.438Z,3596
2018-01-11T12:58:05.166Z,3196
2018-01-11T12:59:15.176Z,2988
2018-01-11T13:00:25.141Z,2916
2018-01-11T13:01:35.128Z,2928
2018-01-11T13:02:44.821Z,3024
2018-01-11T13:03:54.793Z,3184
2018-01-11T13:05:04.757Z,3352
2018-01-11T13:06:14.713Z,3464
2018-01-11T13:07:24.676Z,3576
2018-01-11T13:08:34.393Z,3576
2018-01-11T13:09:44.370Z,3436
2018-01-11T13:10:54.333Z,3256
2018-01-11T13:12:04.049Z,3084
2018-01-11T13:13:14.009Z,2992
2018-01-11T13:14:24.000Z,2916
2018-01-11T13:15:33.976Z,2740
2018-01-11T13:16:43.971Z,2552
2018-01-11T13:17:53.933Z,2420
2018-01-11T13:19:03.915Z,2340
2018-01-11T13:20:13.635Z,2260
2018-01-11T13:21:23.629Z,2252
2018-01-11T13:22:33.602Z,2336
2018-01-11T13:23:43.543Z,2468
2018-01-11T13:24:53.493Z,2608
2018-01-11T13:26:03.188Z,2664
2018-01-11T13:27:13.141Z,2480
2018-01-11T13:28:22.868Z,2228
2018-01-11T13:29:32.602Z,2092
2018-01-11T13:30:42.050Z,2016
2018-01-11T13:31:52.022Z,1932
2018-01-11T13:33:01.721Z,1932
2018-01-11T13:34:11.649Z,1964
2018-01-11T13:35:21.380Z,2060
2018-01-11T13:36:31.342Z,2180
2018-01-11T13:37:41.064Z,2280
2018-01-11T13:38:50.753Z,2400
2018-01-11T13:40:00.454Z,2360
2018-01-11T13:41:10.400Z,2324
2018-01-11T13:42:20.112Z,2236
2018-01-11T13:43:30.118Z,2128
2018-01-11T13:44:40.067Z,2112
2018-01-11T13:45:49.769Z,2124
2018-01-11T13:46:59.784Z,2120
2018-01-11T13:48:09.767Z,2140
2018-01-11T13:49:19.197Z,2148
2018-01-11T13:50:29.183Z,2204
2018-01-11T13:51:39.142Z,2268
2018-01-11T13:52:48.644Z,2312
2018-01-11T13:53:58.610Z,2336
2018-01-11T13:55:08.573Z,2404
2018-01-11T13:56:18.275Z,2540
2018-01-11T13:57:27.973Z,2720
2018-01-11T13:58:37.668Z,2860
2018-01-11T13:59:47.679Z,2912
2018-01-11T14:00:57.373Z,2956
2018-01-11T14:02:07.330Z,2880
2018-01-11T14:03:17.295Z,2852
2018-01-11T14:04:27.312Z,2872
2018-01-11T14:05:36.750Z,2876
2018-01-11T14:06:46.729Z,2788
2018-01-11T14:07:56.174Z,2804
2018-01-11T14:09:05.873Z,2888
2018-01-11T14:10:15.578Z,2968
2018-01-11T14:11:25.586Z,3016
2018-01-11T14:12:35.357Z,3064
2018-01-11T14:13:45.311Z,3048
2018-01-11T14:14:55.022Z,3092
2018-01-11T14:16:05.014Z,3064
2018-01-11T14:17:14.722Z,2936
2018-01-11T14:18:24.734Z,2840
2018-01-11T14:19:34.434Z,2824
2018-01-11T14:20:44.122Z,2776
2018-01-11T14:21:53.578Z,2612
2018-01-11T14:23:03.528Z,2472
2018-01-11T14:24:12.981Z,2312
2018-01-11T14:25:22.929Z,2176
2018-01-11T14:26:32.877Z,2040
2018-01-11T14:27:42.834Z,1924
2018-01-11T14:28:52.790Z,1688
2018-01-11T14:30:02.490Z,1452
2018-01-11T14:31:12.543Z,1260
2018-01-11T14:32:22.260Z,1104
2018-01-11T14:33:31.979Z,1012
2018-01-11T14:34:41.940Z,960
2018-01-11T14:35:51.891Z,916
2018-01-11T14:37:01.641Z,880
2018-01-11T14:38:11.612Z,848
2018-01-11T14:39:21.587Z,816
2018-01-11T14:40:31.546Z,780
2018-01-11T14:41:41.506Z,752
2018-01-11T14:42:51.213Z,732
2018-01-11T14:44:00.918Z,708
2018-01-11T14:45:10.618Z,680
2018-01-11T14:46:20.318Z,648
2018-01-11T14:47:30.281Z,604
2018-01-11T14:48:40.274Z,584
2018-01-11T14:49:49.734Z,548
2018-01-11T14:50:59.684Z,500
2018-01-11T14:52:09.798Z,448
2018-01-11T14:53:19.753Z,400
2018-01-11T14:54:29.461Z,368
2018-01-11T14:55:39.170Z,344
2018-01-11T14:56:49.132Z,308
2018-01-11T14:57:59.081Z,280
2018-01-11T14:59:09.046Z,268
2018-01-11T15:00:18.498Z,252
2018-01-11T15:01:28.204Z,244
2018-01-11T15:02:38.171Z,232
2018-01-11T15:03:48.136Z,208
2018-01-11T15:04:57.836Z,200
2018-01-11T15:06:07.786Z,184
2018-01-11T15:07:17.754Z,168
2018-01-11T15:08:27.706Z,144
2018-01-11T15:09:37.684Z,128
2018-01-11T15:10:47.393Z,112
2018-01-11T15:11:57.358Z,104
2018-01-11T15:13:07.324Z,92
2018-01-11T15:14:17.285Z,84
2018-01-11T15:15:27.250Z,76
2018-01-11T15:16:37.198Z,72
2018-01-11T15:17:47.159Z,72
2018-01-11T15:18:56.886Z,68
2018-01-11T15:20:06.860Z,64
2018-01-11T15:21:16.554Z,60
2018-01-11T15:22:26.516Z,60
2018-01-11T15:23:36.489Z,56
2018-01-11T15:24:46.447Z,48
2018-01-11T15:25:56.401Z,40
2018-01-11T15:27:06.402Z,40
2018-01-11T15:28:16.116Z,32
2018-01-11T15:29:26.312Z,28
2018-01-11T15:30:36.269Z,24
2018-01-11T15:31:46.239Z,20
2018-01-11T15:32:56.024Z,20
2018-01-11T15:34:05.729Z,16
2018-01-11T15:35:15.433Z,16
2018-01-11T15:36:25.151Z,12
2018-01-11T15:37:34.583Z,8
2018-01-11T15:38:44.289Z,8
2018-01-11T15:39:54.002Z,8
2018-01-11T15:41:03.954Z,4
2018-01-11T15:42:13.652Z,4
2018-01-11T15:43:23.384Z,4
2018-01-11T15:44:33.101Z,4
2018-01-11T15:45:43.054Z,0
2018-01-11T15:46:52.480Z,4
2018-01-11T15:48:02.484Z,4
2018-01-11T15:49:12.446Z,0
2018-01-11T15:50:22.478Z,0
2018-01-11T15:51:32.438Z,0
2018-01-11T15:52:42.405Z,0
2018-01-11T15:53:52.360Z,0
2018-01-11T15:55:02.101Z,0
2018-01-11T15:56:11.563Z,0
2018-01-11T15:57:21.524Z,0
2018-01-11T15:58:31.527Z,0
2018-01-11T15:59:41.291Z,0
2018-01-11T16:00:50.998Z,0
2018-01-11T16:02:01.025Z,0
2018-01-11T16:03:11.013Z,0
2018-01-11T16:04:20.469Z,0
2018-01-11T16:05:30.448Z,0
2018-01-11T16:06:40.160Z,0
2018-01-11T16:07:49.606Z,0
2018-01-11T16:08:59.579Z,0
2018-01-11T16:10:09.028Z,0
2018-01-11T16:11:18.998Z,0
2018-01-11T16:12:29.030Z,0
2018-01-11T16:13:39.007Z,0
2018-01-11T16:14:48.978Z,0
2018-01-11T16:15:58.931Z,0
2018-01-11T16:17:08.639Z,0
2018-01-11T16:18:18.661Z,0
2018-01-11T16:19:28.631Z,0
2018-01-11T16:20:38.594Z,0